createdAt,value
2023-02-24T00:02:02.151Z,16.98
2023-02-24T00:04:32.400Z,27.17
2023-02-24T00:06:59.974Z,17.35
2023-02-24T00:09:28.539Z,19.20
2023-02-24T00:11:59.249Z,21.02
2023-02-24T00:14:29.460Z,18.42
2023-02-24T00:16:58.614Z,22.40
2023-02-24T00:19:27.291Z,20.83
2023-02-24T00:21:56.924Z,18.55
2023-02-24T00:24:24.398Z,18.67
2023-02-24T00:27:02.103Z,21.55
2023-02-24T00:29:30.028Z,20.65
2023-02-24T00:32:03.724Z,17.83
2023-02-24T00:34:32.322Z,19.35
2023-02-24T00:36:59.593Z,18.85
2023-02-24T00:39:34.748Z,19.27
2023-02-24T00:42:06.510Z,21.63
2023-02-24T00:44:35.959Z,19.88
2023-02-24T00:47:04.968Z,20.02
2023-02-24T00:49:32.712Z,22.65
2023-02-24T00:51:59.804Z,18.40
2023-02-24T00:54:28.389Z,22.38
2023-02-24T00:56:56.128Z,20.00
2023-02-24T00:59:26.599Z,18.65
2023-02-24T01:01:54.800Z,17.40
2023-02-24T01:04:22.665Z,19.27
2023-02-24T01:06:52.702Z,18.73
2023-02-24T01:09:20.820Z,20.55
2023-02-24T01:12:18.145Z,18.25
2023-02-24T01:14:47.790Z,17.05
2023-02-24T01:17:16.500Z,20.30
2023-02-24T01:19:44.384Z,20.05
2023-02-24T01:22:15.088Z,19.83
2023-02-24T01:24:43.712Z,16.15
2023-02-24T01:27:13.210Z,17.08
2023-02-24T01:29:40.281Z,19.30
2023-02-24T01:32:08.664Z,24.00
2023-02-24T01:34:35.588Z,20.25
2023-02-24T01:37:02.464Z,18.25
2023-02-24T01:39:29.280Z,21.60
2023-02-24T01:41:56.361Z,20.15
2023-02-24T01:44:25.228Z,22.90
2023-02-24T01:46:53.713Z,22.67
2023-02-24T01:49:34.269Z,20.88
2023-02-24T01:52:09.049Z,17.08
2023-02-24T01:54:43.014Z,22.45
2023-02-24T01:57:11.295Z,16.63
2023-02-24T01:59:38.675Z,19.17
2023-02-24T02:02:08.062Z,20.23
2023-02-24T02:04:39.931Z,17.60
2023-02-24T02:07:11.012Z,19.08
2023-02-24T02:09:41.581Z,18.48
2023-02-24T02:12:09.523Z,27.23
2023-02-24T02:14:38.767Z,18.38
2023-02-24T02:17:24.789Z,19.88
2023-02-24T02:20:15.827Z,21.63
2023-02-24T02:23:13.817Z,19.33
2023-02-24T02:26:05.523Z,20.40
2023-02-24T02:28:58.153Z,16.42
2023-02-24T02:31:37.256Z,20.77
2023-02-24T02:34:19.284Z,18.88
2023-02-24T02:36:49.063Z,18.63
2023-02-24T02:39:38.720Z,21.40
2023-02-24T02:42:27.657Z,20.20
2023-02-24T02:45:21.026Z,21.42
2023-02-24T02:47:52.041Z,21.10
2023-02-24T02:50:43.345Z,22.38
2023-02-24T02:53:17.504Z,19.75
2023-02-24T02:55:53.474Z,18.70
2023-02-24T03:01:03.674Z,20.40
2023-02-24T03:03:34.284Z,21.52
2023-02-24T03:06:13.368Z,21.75
2023-02-24T03:08:43.977Z,22.90
2023-02-24T03:11:15.190Z,21.92
2023-02-24T03:13:45.586Z,22.00
2023-02-24T03:16:14.637Z,22.08
2023-02-24T03:18:51.047Z,19.88
2023-02-24T03:21:28.890Z,22.23
2023-02-24T03:23:55.972Z,24.73
2023-02-24T03:26:49.689Z,23.88
2023-02-24T03:29:24.151Z,21.70
2023-02-24T03:31:59.539Z,21.52
2023-02-24T03:34:33.618Z,22.17
2023-02-24T03:37:01.929Z,23.80
2023-02-24T03:39:28.735Z,22.58
2023-02-24T03:42:08.790Z,26.42
2023-02-24T03:44:35.521Z,21.55
2023-02-24T03:47:02.573Z,25.55
2023-02-24T03:49:29.516Z,23.23
2023-02-24T03:52:21.548Z,24.50
2023-02-24T03:54:59.213Z,23.70
2023-02-24T03:57:36.481Z,21.77
2023-02-24T04:00:26.401Z,21.10
2023-02-24T04:03:03.579Z,19.40
2023-02-24T04:05:33.443Z,24.58
2023-02-24T04:08:07.633Z,21.38
2023-02-24T04:10:52.642Z,22.00
2023-02-24T04:13:37.689Z,25.05
2023-02-24T04:16:40.087Z,20.20
2023-02-24T04:19:16.351Z,25.17
2023-02-24T04:21:45.612Z,21.65
2023-02-24T04:24:15.921Z,29.83
2023-02-24T04:26:45.328Z,27.25
2023-02-24T04:29:17.780Z,24.60
2023-02-24T04:31:53.343Z,22.23
2023-02-24T04:34:20.445Z,22.77
2023-02-24T04:36:49.696Z,23.83
2023-02-24T04:39:19.256Z,23.73
2023-02-24T04:41:49.403Z,20.33
2023-02-24T04:44:21.623Z,21.83
2023-02-24T04:46:50.290Z,24.95
2023-02-24T04:49:19.162Z,23.30
2023-02-24T04:51:46.740Z,23.90
2023-02-24T04:54:17.545Z,19.70
2023-02-24T04:56:50.763Z,23.48
2023-02-24T04:59:22.435Z,30.58
2023-02-24T05:01:53.047Z,27.13
2023-02-24T05:04:20.164Z,26.90
2023-02-24T05:06:47.389Z,30.45
2023-02-24T05:09:19.493Z,20.75
2023-02-24T05:11:51.236Z,24.45
2023-02-24T05:14:21.040Z,22.52
2023-02-24T05:16:49.393Z,25.17
2023-02-24T05:19:36.952Z,25.42
2023-02-24T05:22:04.804Z,22.67
2023-02-24T05:24:31.722Z,22.73
2023-02-24T05:26:59.375Z,21.10
2023-02-24T05:29:31.855Z,23.05
2023-02-24T05:32:02.650Z,22.30
2023-02-24T05:34:31.705Z,24.88
2023-02-24T05:37:01.599Z,25.38
2023-02-24T05:39:28.509Z,21.85
2023-02-24T05:41:57.302Z,24.75
2023-02-24T05:44:26.587Z,19.30
2023-02-24T05:46:58.830Z,26.98
2023-02-24T05:49:33.798Z,23.55
2023-02-24T05:52:07.771Z,22.42
2023-02-24T05:54:41.117Z,20.27
2023-02-24T05:57:13.761Z,26.10
2023-02-24T05:59:42.257Z,22.73
2023-02-24T06:02:12.971Z,24.95
2023-02-24T06:04:53.963Z,24.65
2023-02-24T06:07:26.817Z,26.17
2023-02-24T06:09:58.279Z,19.98
2023-02-24T06:12:30.337Z,22.48
2023-02-24T06:15:00.186Z,24.40
2023-02-24T06:17:28.411Z,24.13
2023-02-24T06:19:55.306Z,21.60
2023-02-24T06:22:25.325Z,27.23
2023-02-24T06:24:54.388Z,24.88
2023-02-24T06:27:24.757Z,21.52
2023-02-24T06:29:53.907Z,24.17
2023-02-24T06:32:24.620Z,27.73
2023-02-24T06:34:51.828Z,20.80
2023-02-24T06:37:18.636Z,23.73
2023-02-24T06:39:45.876Z,22.77
2023-02-24T06:42:13.405Z,23.63
2023-02-24T06:44:41.688Z,30.92
2023-02-24T06:47:13.155Z,24.42
2023-02-24T06:49:40.116Z,19.83
2023-02-24T06:52:07.011Z,25.83
2023-02-24T06:54:36.007Z,24.35
2023-02-24T06:57:03.988Z,26.65
2023-02-24T06:59:32.646Z,27.05
2023-02-24T07:02:02.211Z,25.20
2023-02-24T07:04:29.793Z,24.17
2023-02-24T07:07:03.561Z,27.38
2023-02-24T07:09:32.097Z,28.48
2023-02-24T07:12:02.601Z,24.73
2023-02-24T07:14:33.155Z,27.75
2023-02-24T07:17:00.206Z,25.73
2023-02-24T07:19:30.694Z,22.00
2023-02-24T07:22:03.578Z,24.17
2023-02-24T07:24:35.860Z,29.83
2023-02-24T07:27:12.136Z,32.00
2023-02-24T07:29:39.485Z,26.60
2023-02-24T07:32:08.810Z,28.40
2023-02-24T07:34:40.029Z,23.40
2023-02-24T07:37:09.060Z,26.00
2023-02-24T07:39:37.706Z,25.08
2023-02-24T07:42:07.618Z,26.58
2023-02-24T07:44:34.396Z,22.52
2023-02-24T07:47:01.319Z,25.77
2023-02-24T07:49:30.236Z,23.73
2023-02-24T07:51:58.192Z,22.65
2023-02-24T07:54:29.917Z,26.92
2023-02-24T07:56:59.230Z,25.90
2023-02-24T07:59:34.369Z,25.05
2023-02-24T08:02:04.933Z,23.05
2023-02-24T08:04:33.056Z,26.10
2023-02-24T08:07:03.442Z,22.65
2023-02-24T08:09:45.313Z,28.63
2023-02-24T08:12:21.961Z,29.17
2023-02-24T08:14:51.812Z,30.65
2023-02-24T08:17:26.913Z,24.95
2023-02-24T08:20:15.629Z,27.30
2023-02-24T08:22:44.452Z,34.53
2023-02-24T08:25:18.482Z,25.30
2023-02-24T08:28:06.857Z,26.95
2023-02-24T08:30:39.987Z,26.15
2023-02-24T08:33:10.532Z,26.02
2023-02-24T08:35:39.541Z,23.05
2023-02-24T08:38:09.784Z,27.35
2023-02-24T08:40:50.514Z,26.13
2023-02-24T08:43:29.727Z,25.08
2023-02-24T08:46:21.565Z,23.05
2023-02-24T08:48:55.624Z,30.48
2023-02-24T08:51:34.703Z,28.38
2023-02-24T08:54:10.919Z,20.13
2023-02-24T08:59:36.767Z,27.80
2023-02-24T09:02:27.295Z,26.38
2023-02-24T09:04:58.402Z,22.15
2023-02-24T09:07:35.502Z,23.88
2023-02-24T09:10:11.573Z,27.98
2023-02-24T09:15:10.012Z,24.95
2023-02-24T09:17:40.346Z,26.20
2023-02-24T09:20:36.233Z,21.80
2023-02-24T09:23:05.801Z,24.88
2023-02-24T09:25:49.659Z,26.63
2023-02-24T09:28:18.443Z,25.25
2023-02-24T09:30:55.423Z,22.42
2023-02-24T09:33:39.517Z,24.92
2023-02-24T09:36:20.030Z,21.83
2023-02-24T09:39:01.483Z,23.98
2023-02-24T09:41:57.327Z,22.98
2023-02-24T09:44:44.376Z,35.53
2023-02-24T09:47:19.958Z,23.70
2023-02-24T09:49:56.486Z,28.23
2023-02-24T09:52:39.800Z,22.80
2023-02-24T09:55:27.918Z,21.88
2023-02-24T09:58:27.030Z,22.50
2023-02-24T10:01:23.657Z,29.83
2023-02-24T10:04:20.578Z,25.58
2023-02-24T10:06:57.746Z,22.75
2023-02-24T10:09:47.605Z,22.75
2023-02-24T10:12:17.647Z,22.83
2023-02-24T10:15:16.356Z,23.20
2023-02-24T10:17:47.429Z,26.17
2023-02-24T10:20:39.192Z,20.52
2023-02-24T10:23:14.889Z,28.70
2023-02-24T10:25:56.709Z,24.42
2023-02-24T10:28:52.097Z,30.83
2023-02-24T10:31:35.583Z,23.50
2023-02-24T10:34:08.745Z,26.70
2023-02-24T10:36:36.331Z,24.63
2023-02-24T10:39:16.054Z,23.38
2023-02-24T10:41:57.414Z,26.85
2023-02-24T10:44:39.139Z,27.15
2023-02-24T10:47:13.398Z,26.83
2023-02-24T10:49:57.572Z,23.60
2023-02-24T10:52:58.507Z,25.67
2023-02-24T10:55:53.602Z,26.70
2023-02-24T10:58:28.964Z,23.83
2023-02-24T11:01:18.638Z,24.13
2023-02-24T11:04:12.403Z,27.08
2023-02-24T11:06:42.484Z,25.40
2023-02-24T11:09:28.079Z,26.23
2023-02-24T11:12:41.520Z,24.90
2023-02-24T11:15:55.966Z,25.95
2023-02-24T11:18:25.860Z,27.20
2023-02-24T11:21:01.342Z,21.55
2023-02-24T11:23:43.362Z,23.20
2023-02-24T11:26:21.113Z,21.67
2023-02-24T11:29:13.675Z,25.83
2023-02-24T11:32:22.189Z,24.80
2023-02-24T11:35:12.676Z,25.83
2023-02-24T11:37:43.683Z,23.30
2023-02-24T11:40:24.507Z,23.27
2023-02-24T11:43:03.271Z,22.67
2023-02-24T11:45:39.392Z,24.42
2023-02-24T11:50:47.202Z,27.48
2023-02-24T11:53:38.498Z,34.05
2023-02-24T11:56:23.705Z,23.50
2023-02-24T11:59:14.950Z,23.67
2023-02-24T12:02:12.821Z,25.20
2023-02-24T12:05:02.814Z,21.10
2023-02-24T12:07:39.000Z,25.42
2023-02-24T12:10:17.192Z,26.70
2023-02-24T12:13:10.782Z,28.48
2023-02-24T12:16:02.604Z,28.17
2023-02-24T12:18:40.311Z,29.08
2023-02-24T12:21:16.938Z,24.52
2023-02-24T12:23:45.754Z,23.40
2023-02-24T12:26:21.775Z,28.98
2023-02-24T12:31:42.331Z,30.98
2023-02-24T12:34:37.761Z,26.75
2023-02-24T12:37:25.215Z,26.75
2023-02-24T12:40:00.906Z,25.52
2023-02-24T12:42:46.181Z,29.63
2023-02-24T12:45:44.593Z,28.55
2023-02-24T12:48:51.447Z,32.92
2023-02-24T12:51:38.959Z,28.45
2023-02-24T12:54:17.815Z,28.52
2023-02-24T12:56:57.004Z,30.10
2023-02-24T12:59:28.453Z,33.60
2023-02-24T13:02:05.250Z,25.48
2023-02-24T13:04:35.015Z,29.33
2023-02-24T13:07:28.844Z,32.38
2023-02-24T13:10:33.216Z,27.67
2023-02-24T13:13:25.364Z,28.95
2023-02-24T13:15:57.507Z,30.20
2023-02-24T13:18:34.285Z,30.67
2023-02-24T13:21:21.968Z,35.50
2023-02-24T13:24:01.588Z,30.45
2023-02-24T13:26:32.057Z,30.25
2023-02-24T13:29:09.585Z,27.58
2023-02-24T13:31:45.340Z,28.63
2023-02-24T13:34:33.458Z,28.23
2023-02-24T13:37:00.579Z,30.02
2023-02-24T13:39:41.500Z,30.10
2023-02-24T13:42:20.509Z,31.75
2023-02-24T13:45:17.538Z,30.33
2023-02-24T13:50:20.865Z,27.65
2023-02-24T13:53:12.509Z,25.33
2023-02-24T13:55:51.016Z,32.08
2023-02-24T13:58:24.685Z,29.45
2023-02-24T14:01:10.961Z,26.42
2023-02-24T14:03:40.259Z,35.20
2023-02-24T14:06:14.883Z,33.40
2023-02-24T14:08:51.363Z,30.27
2023-02-24T14:11:18.437Z,35.47
2023-02-24T14:13:49.043Z,30.88
2023-02-24T14:16:21.724Z,29.65
2023-02-24T14:18:58.969Z,30.40
2023-02-24T14:21:28.122Z,32.92
2023-02-24T14:24:16.705Z,29.17
2023-02-24T14:26:49.459Z,32.47
2023-02-24T14:29:22.405Z,32.47
2023-02-24T14:31:52.260Z,33.88
2023-02-24T14:34:23.316Z,35.78
2023-02-24T14:36:54.058Z,32.17
2023-02-24T14:39:27.052Z,36.97
2023-02-24T14:42:04.906Z,34.22
2023-02-24T14:44:31.846Z,32.97
2023-02-24T14:47:02.441Z,31.88
2023-02-24T14:49:31.408Z,38.60
2023-02-24T14:52:48.302Z,29.77
2023-02-24T14:55:19.948Z,30.15
2023-02-24T14:57:58.381Z,32.55
2023-02-24T15:00:34.963Z,38.33
2023-02-24T15:03:32.245Z,34.25
2023-02-24T15:06:04.755Z,33.35
2023-02-24T15:08:58.397Z,33.40
2023-02-24T15:11:29.549Z,31.58
2023-02-24T15:14:00.683Z,30.95
2023-02-24T15:16:41.400Z,30.85
2023-02-24T15:19:54.766Z,31.73
2023-02-24T15:22:21.648Z,38.72
2023-02-24T15:24:49.118Z,36.40
2023-02-24T15:27:15.836Z,31.60
2023-02-24T15:29:45.060Z,33.55
2023-02-24T15:32:19.494Z,34.95
2023-02-24T15:34:48.035Z,35.40
2023-02-24T15:37:27.041Z,31.75
2023-02-24T15:40:21.811Z,36.00
2023-02-24T15:43:09.480Z,31.20
2023-02-24T15:45:39.379Z,31.10
2023-02-24T15:48:24.935Z,40.80
2023-02-24T15:50:51.800Z,32.10
2023-02-24T15:53:18.719Z,36.35
2023-02-24T15:55:45.923Z,31.55
2023-02-24T15:58:18.580Z,35.60
2023-02-24T16:00:45.988Z,35.00
2023-02-24T16:03:13.217Z,33.35
2023-02-24T16:05:40.274Z,38.70
2023-02-24T16:08:13.093Z,37.75
2023-02-24T16:10:40.770Z,34.58
2023-02-24T16:13:16.710Z,30.10
2023-02-24T16:15:44.701Z,34.13
2023-02-24T16:18:20.911Z,34.22
2023-02-24T16:20:54.301Z,28.98
2023-02-24T16:23:22.607Z,28.23
2023-02-24T16:25:51.784Z,25.88
2023-02-24T16:28:20.983Z,29.65
2023-02-24T16:30:49.907Z,31.45
2023-02-24T16:33:18.984Z,30.52
2023-02-24T16:35:45.877Z,37.40
2023-02-24T16:38:15.200Z,31.75
2023-02-24T16:40:47.115Z,33.08
2023-02-24T16:43:14.080Z,32.38
2023-02-24T16:45:41.807Z,29.33
2023-02-24T16:48:20.968Z,29.75
2023-02-24T16:50:48.382Z,34.75
2023-02-24T16:53:22.663Z,30.73
2023-02-24T16:55:50.369Z,30.48
2023-02-24T16:58:17.601Z,33.38
2023-02-24T17:00:47.662Z,32.03
2023-02-24T17:03:24.115Z,39.85
2023-02-24T17:05:51.453Z,42.83
2023-02-24T17:08:18.537Z,43.22
2023-02-24T17:10:46.254Z,35.60
2023-02-24T17:13:15.141Z,36.08
2023-02-24T17:15:42.454Z,36.40
2023-02-24T17:18:09.429Z,36.03
2023-02-24T17:20:38.289Z,37.60
2023-02-24T17:23:05.109Z,35.17
2023-02-24T17:25:32.985Z,37.40
2023-02-24T17:28:00.125Z,32.42
2023-02-24T17:30:33.217Z,42.75
2023-02-24T17:33:00.659Z,34.17
2023-02-24T17:35:28.661Z,37.10
2023-02-24T17:37:57.139Z,34.28
2023-02-24T17:40:24.075Z,34.38
2023-02-24T17:42:51.417Z,32.50
2023-02-24T17:45:18.398Z,35.08
2023-02-24T17:47:45.222Z,32.30
2023-02-24T17:50:13.173Z,33.08
2023-02-24T17:52:40.429Z,29.13
2023-02-24T17:55:08.200Z,35.35
2023-02-24T17:57:35.698Z,35.40
2023-02-24T18:00:04.859Z,33.97
2023-02-24T18:02:31.861Z,31.17
2023-02-24T18:04:58.815Z,33.15
2023-02-24T18:07:25.639Z,27.85
2023-02-24T18:09:52.488Z,28.67
2023-02-24T18:12:20.830Z,29.55
2023-02-24T18:14:56.248Z,31.70
2023-02-24T18:17:29.519Z,26.80
2023-02-24T18:19:56.571Z,26.63
2023-02-24T18:22:23.452Z,32.50
2023-02-24T18:24:50.914Z,29.38
2023-02-24T18:27:17.996Z,26.98
2023-02-24T18:29:44.996Z,26.20
2023-02-24T18:32:12.084Z,24.98
2023-02-24T18:34:39.014Z,27.42
2023-02-24T18:37:05.815Z,27.85
2023-02-24T18:39:32.652Z,29.85
2023-02-24T18:41:59.681Z,30.02
2023-02-24T18:44:26.676Z,25.45
2023-02-24T18:46:53.556Z,26.63
2023-02-24T18:49:20.359Z,26.38
2023-02-24T18:51:48.977Z,30.63
2023-02-24T18:54:16.441Z,23.67
2023-02-24T18:56:43.352Z,40.42
2023-02-24T18:59:10.153Z,28.02
2023-02-24T19:01:39.371Z,26.55
2023-02-24T19:04:08.407Z,27.30
2023-02-24T19:06:35.903Z,29.63
2023-02-24T19:09:12.177Z,25.17
2023-02-24T19:11:41.066Z,25.65
2023-02-24T19:14:11.796Z,25.55
2023-02-24T19:16:38.965Z,27.52
2023-02-24T19:19:06.139Z,26.83
2023-02-24T19:21:33.993Z,29.95
2023-02-24T19:24:08.126Z,25.77
2023-02-24T19:26:35.533Z,23.40
2023-02-24T19:29:05.353Z,26.33
2023-02-24T19:31:33.589Z,26.85
2023-02-24T19:34:03.402Z,23.00
2023-02-24T19:36:32.841Z,22.63
2023-02-24T19:38:59.926Z,24.15
2023-02-24T19:41:27.494Z,24.58
2023-02-24T19:43:55.298Z,22.75
2023-02-24T19:46:22.596Z,23.95
2023-02-24T19:48:49.562Z,25.55
2023-02-24T19:51:22.761Z,30.35
2023-02-24T19:53:53.470Z,24.90
2023-02-24T19:56:31.091Z,30.63
2023-02-24T19:58:59.869Z,20.85
2023-02-24T20:01:28.958Z,24.95
2023-02-24T20:03:58.223Z,24.42
2023-02-24T20:06:33.629Z,26.42
2023-02-24T20:09:01.280Z,25.55
2023-02-24T20:11:32.943Z,25.63
2023-02-24T20:13:59.664Z,22.15
2023-02-24T20:16:28.617Z,27.88
2023-02-24T20:18:55.713Z,29.63
2023-02-24T20:21:23.098Z,29.63
2023-02-24T20:23:50.941Z,29.70
2023-02-24T20:26:18.249Z,27.30
2023-02-24T20:28:46.561Z,20.92
2023-02-24T20:31:17.068Z,23.85
2023-02-24T20:33:44.114Z,22.70
2023-02-24T20:36:14.160Z,28.50
2023-02-24T20:38:40.945Z,29.08
2023-02-24T20:41:08.252Z,25.05
2023-02-24T20:43:35.529Z,29.48
2023-02-24T20:46:24.233Z,23.65
2023-02-24T20:48:52.610Z,21.60
2023-02-24T20:51:19.633Z,25.10
2023-02-24T20:53:56.631Z,24.67
2023-02-24T20:56:25.649Z,27.58
2023-02-24T20:58:59.912Z,32.40
2023-02-24T21:01:27.354Z,29.58
2023-02-24T21:03:54.217Z,29.00
2023-02-24T21:06:21.064Z,26.38
2023-02-24T21:08:47.900Z,30.13
2023-02-24T21:11:17.090Z,28.42
2023-02-24T21:13:46.725Z,26.40
2023-02-24T21:16:15.684Z,24.35
2023-02-24T21:18:44.245Z,27.35
2023-02-24T21:21:11.692Z,24.35
2023-02-24T21:23:39.456Z,25.50
2023-02-24T21:26:07.070Z,28.13
2023-02-24T21:28:34.504Z,23.50
2023-02-24T21:31:06.799Z,36.65
2023-02-24T21:33:33.719Z,26.80
2023-02-24T21:36:06.651Z,26.42
2023-02-24T21:38:37.823Z,25.52
2023-02-24T21:41:07.565Z,29.58
2023-02-24T21:43:34.767Z,32.58
2023-02-24T21:46:06.269Z,29.45
2023-02-24T21:48:33.952Z,23.67
2023-02-24T21:51:03.923Z,27.73
2023-02-24T21:53:33.774Z,31.88
2023-02-24T21:56:16.735Z,25.77
2023-02-24T21:58:51.045Z,25.60
2023-02-24T22:01:21.586Z,28.10
2023-02-24T22:03:48.441Z,24.33
2023-02-24T22:06:17.697Z,32.83
2023-02-24T22:08:45.640Z,26.55
2023-02-24T22:11:15.727Z,33.20
2023-02-24T22:13:44.068Z,27.15
2023-02-24T22:16:16.611Z,26.50
2023-02-24T22:18:43.883Z,28.38
2023-02-24T22:21:13.636Z,26.45
2023-02-24T22:23:40.407Z,29.55
2023-02-24T22:26:09.916Z,27.98
2023-02-24T22:28:40.706Z,29.63
2023-02-24T22:31:09.255Z,32.05
2023-02-24T22:33:40.895Z,28.02
2023-02-24T22:36:11.730Z,32.55
2023-02-24T22:38:40.090Z,34.15
2023-02-24T22:41:11.060Z,33.13
2023-02-24T22:43:38.241Z,35.30
2023-02-24T22:46:07.317Z,33.15
2023-02-24T22:48:36.060Z,26.83
2023-02-24T22:51:05.188Z,34.28
2023-02-24T22:53:34.565Z,34.22
2023-02-24T22:56:01.353Z,31.83
2023-02-24T22:58:28.272Z,33.08
2023-02-24T23:00:56.576Z,31.50
2023-02-24T23:03:30.572Z,26.75
2023-02-24T23:06:18.020Z,31.05
2023-02-24T23:08:47.014Z,31.23
2023-02-24T23:11:18.349Z,32.65
2023-02-24T23:13:47.798Z,36.10
2023-02-24T23:16:18.510Z,38.78
2023-02-24T23:18:50.696Z,30.83
2023-02-24T23:21:22.274Z,31.95
2023-02-24T23:23:50.359Z,41.25
2023-02-24T23:26:18.109Z,37.20
2023-02-24T23:28:45.114Z,35.78
2023-02-24T23:31:19.296Z,36.97
2023-02-24T23:33:46.498Z,37.78
2023-02-24T23:36:13.320Z,36.95
2023-02-24T23:38:40.065Z,43.17
2023-02-24T23:41:11.635Z,40.42
2023-02-24T23:43:39.012Z,39.75
2023-02-24T23:46:08.065Z,36.22
2023-02-24T23:48:35.576Z,40.85
2023-02-24T23:51:07.553Z,37.70
2023-02-24T23:53:45.039Z,39.38
2023-02-24T23:56:24.063Z,45.85
2023-02-24T23:58:52.770Z,40.15
